createdAt,value
2019-05-25T00:01:50.862Z,58.50
2019-05-25T00:04:19.297Z,58.40
2019-05-25T00:06:47.768Z,58.50
2019-05-25T00:09:16.190Z,58.50
2019-05-25T00:11:44.656Z,58.60
2019-05-25T00:14:13.084Z,58.50
2019-05-25T00:16:41.539Z,58.50
2019-05-25T00:19:10.074Z,58.60
2019-05-25T00:21:38.607Z,58.70
2019-05-25T00:24:12.255Z,58.70
2019-05-25T00:26:37.218Z,58.70
2019-05-25T00:29:05.664Z,58.70
2019-05-25T00:31:34.120Z,58.70
2019-05-25T00:34:02.589Z,58.80
2019-05-25T00:36:31.164Z,58.80
2019-05-25T00:38:59.628Z,58.80
2019-05-25T00:41:28.083Z,58.70
2019-05-25T00:43:56.547Z,58.90
2019-05-25T00:46:25.059Z,58.80
2019-05-25T00:48:53.538Z,58.90
2019-05-25T00:51:21.961Z,58.90
2019-05-25T00:53:50.432Z,58.90
2019-05-25T00:56:18.928Z,58.90
2019-05-25T00:58:47.410Z,59.50
2019-05-25T01:01:15.857Z,59.00
2019-05-25T01:03:44.309Z,59.10
2019-05-25T01:06:12.754Z,59.00
2019-05-25T01:08:41.208Z,59.10
2019-05-25T01:11:09.633Z,59.10
2019-05-25T01:13:38.094Z,59.20
2019-05-25T01:16:06.684Z,59.10
2019-05-25T01:18:35.135Z,59.10
2019-05-25T01:21:03.651Z,59.20
2019-05-25T01:23:32.126Z,59.20
2019-05-25T01:26:00.555Z,59.20
2019-05-25T01:28:29.040Z,59.40
2019-05-25T01:30:57.497Z,59.20
2019-05-25T01:33:25.965Z,59.40
2019-05-25T01:35:54.410Z,59.30
2019-05-25T01:38:22.848Z,59.40
2019-05-25T01:40:51.283Z,59.40
2019-05-25T01:43:19.732Z,59.40
2019-05-25T01:45:48.212Z,59.40
2019-05-25T01:48:16.672Z,59.50
2019-05-25T01:50:45.164Z,59.50
2019-05-25T01:53:13.638Z,59.50
2019-05-25T01:55:42.092Z,59.50
2019-05-25T01:58:10.573Z,59.60
2019-05-25T02:00:39.094Z,59.50
2019-05-25T02:03:07.555Z,59.50
2019-05-25T02:05:36.064Z,59.60
2019-05-25T02:08:04.689Z,59.60
2019-05-25T02:10:33.206Z,59.70
2019-05-25T02:13:01.651Z,59.70
2019-05-25T02:15:30.250Z,59.70
2019-05-25T02:17:58.681Z,59.80
2019-05-25T02:20:27.153Z,59.80
2019-05-25T02:22:55.708Z,59.80
2019-05-25T02:25:24.412Z,59.80
2019-05-25T02:27:52.868Z,59.80
2019-05-25T02:30:24.423Z,59.90
2019-05-25T02:32:52.947Z,59.90
2019-05-25T02:35:24.604Z,59.90
2019-05-25T02:37:56.089Z,60.00
2019-05-25T02:40:24.707Z,60.00
2019-05-25T02:42:53.220Z,60.40
2019-05-25T02:45:21.829Z,60.20
2019-05-25T02:47:50.721Z,60.20
2019-05-25T02:50:19.785Z,60.20
2019-05-25T02:52:48.322Z,60.20
2019-05-25T02:55:32.426Z,60.10
2019-05-25T02:57:47.180Z,60.20
2019-05-25T03:00:17.695Z,60.30
2019-05-25T03:02:46.297Z,60.30
2019-05-25T03:05:16.725Z,60.40
2019-05-25T03:07:49.183Z,60.40
2019-05-25T03:10:17.729Z,60.50
2019-05-25T03:12:46.336Z,60.40
2019-05-25T03:15:15.817Z,60.50
2019-05-25T03:17:44.342Z,60.50
2019-05-25T03:20:13.119Z,60.50
2019-05-25T03:22:41.663Z,60.60
2019-05-25T03:25:10.188Z,60.60
2019-05-25T03:27:38.658Z,60.60
2019-05-25T03:30:08.470Z,60.70
2019-05-25T03:32:37.091Z,60.60
2019-05-25T03:35:07.430Z,61.40
2019-05-25T03:37:35.981Z,60.70
2019-05-25T03:40:08.978Z,60.80
2019-05-25T03:42:37.449Z,60.80
2019-05-25T03:45:07.330Z,60.80
2019-05-25T03:47:35.796Z,60.70
2019-05-25T03:50:05.079Z,60.80
2019-05-25T03:52:33.547Z,60.80
2019-05-25T03:55:02.067Z,60.90
2019-05-25T03:57:30.536Z,60.80
2019-05-25T03:59:58.968Z,60.90
2019-05-25T04:02:27.425Z,60.90
2019-05-25T04:04:55.868Z,61.00
2019-05-25T04:07:24.331Z,60.90
2019-05-25T04:09:52.756Z,61.00
2019-05-25T04:12:21.372Z,61.10
2019-05-25T04:14:49.828Z,61.10
2019-05-25T04:17:18.270Z,61.00
2019-05-25T04:19:46.814Z,61.10
2019-05-25T04:22:15.397Z,61.10
2019-05-25T04:24:43.926Z,61.10
2019-05-25T04:27:12.383Z,61.10
2019-05-25T04:29:40.901Z,61.10
2019-05-25T04:32:09.507Z,61.10
2019-05-25T04:34:37.947Z,61.20
2019-05-25T04:37:06.441Z,61.20
2019-05-25T04:39:34.902Z,61.20
2019-05-25T04:42:03.430Z,61.10
2019-05-25T04:44:31.901Z,61.20
2019-05-25T04:47:00.359Z,61.30
2019-05-25T04:49:28.850Z,61.30
2019-05-25T04:51:57.395Z,61.30
2019-05-25T04:54:25.874Z,61.30
2019-05-25T04:56:54.320Z,61.30
2019-05-25T04:59:22.776Z,61.30
2019-05-25T05:01:51.243Z,61.30
2019-05-25T05:04:19.743Z,61.30
2019-05-25T05:06:48.247Z,61.20
2019-05-25T05:09:16.664Z,61.10
2019-05-25T05:11:45.134Z,61.20
2019-05-25T05:14:13.560Z,61.20
2019-05-25T05:16:42.036Z,61.10
2019-05-25T05:19:10.481Z,61.20
2019-05-25T05:21:38.933Z,61.20
2019-05-25T05:24:07.460Z,61.20
2019-05-25T05:26:35.903Z,61.10
2019-05-25T05:29:04.595Z,61.00
2019-05-25T05:31:33.121Z,61.10
2019-05-25T05:34:01.606Z,62.10
2019-05-25T05:36:30.980Z,61.00
2019-05-25T05:39:00.683Z,61.10
2019-05-25T05:41:31.369Z,61.10
2019-05-25T05:44:01.810Z,61.10
2019-05-25T05:46:32.678Z,61.20
2019-05-25T05:49:02.417Z,61.10
2019-05-25T05:51:33.981Z,61.20
2019-05-25T05:54:03.749Z,61.10
2019-05-25T05:56:32.314Z,61.10
2019-05-25T05:59:01.418Z,61.20
2019-05-25T06:01:29.982Z,61.10
2019-05-25T06:03:58.512Z,61.60
2019-05-25T06:06:27.083Z,61.20
2019-05-25T06:08:55.553Z,61.10
2019-05-25T06:11:24.095Z,61.00
2019-05-25T06:13:52.611Z,61.00
2019-05-25T06:16:21.163Z,61.00
2019-05-25T06:18:49.609Z,61.10
2019-05-25T06:21:18.153Z,61.20
2019-05-25T06:23:46.700Z,61.00
2019-05-25T06:26:17.513Z,61.10
2019-05-25T06:28:48.317Z,62.20
2019-05-25T06:31:16.233Z,61.60
2019-05-25T06:33:44.677Z,61.40
2019-05-25T06:36:13.220Z,61.20
2019-05-25T06:38:41.664Z,64.80
2019-05-25T06:41:10.125Z,61.80
2019-05-25T06:43:38.605Z,61.60
2019-05-25T06:46:07.101Z,63.80
2019-05-25T06:48:35.643Z,61.60
2019-05-25T06:51:04.409Z,61.90
2019-05-25T06:53:32.912Z,61.30
2019-05-25T06:56:01.452Z,61.20
2019-05-25T06:58:29.991Z,61.60
2019-05-25T07:00:58.452Z,61.40
2019-05-25T07:03:26.934Z,62.60
2019-05-25T07:05:55.387Z,62.60
2019-05-25T07:08:23.829Z,62.90
2019-05-25T07:10:52.420Z,62.10
2019-05-25T07:13:20.951Z,65.70
2019-05-25T07:15:49.413Z,62.90
2019-05-25T07:18:17.884Z,62.10
2019-05-25T07:20:46.370Z,62.10
2019-05-25T07:23:14.832Z,61.50
2019-05-25T07:25:43.291Z,62.50
2019-05-25T07:28:11.726Z,61.80
2019-05-25T07:30:40.266Z,62.70
2019-05-25T07:33:08.789Z,63.00
2019-05-25T07:35:37.372Z,62.30
2019-05-25T07:38:06.076Z,62.00
2019-05-25T07:40:34.532Z,64.20
2019-05-25T07:43:02.995Z,64.00
2019-05-25T07:45:31.453Z,63.10
2019-05-25T07:47:59.917Z,61.80
2019-05-25T07:50:30.173Z,61.60
2019-05-25T07:52:58.674Z,61.50
2019-05-25T07:55:27.155Z,61.60
2019-05-25T07:57:55.600Z,61.40
2019-05-25T08:00:26.287Z,61.50
2019-05-25T08:02:54.815Z,62.30
2019-05-25T08:05:23.621Z,62.00
2019-05-25T08:07:52.103Z,61.50
2019-05-25T08:10:20.686Z,61.80
2019-05-25T08:12:49.360Z,61.30
2019-05-25T08:15:18.046Z,61.00
2019-05-25T08:17:46.553Z,61.10
2019-05-25T08:20:15.286Z,62.30
2019-05-25T08:22:43.741Z,62.60
2019-05-25T08:25:14.482Z,62.20
2019-05-25T08:27:43.018Z,61.50
2019-05-25T08:30:11.620Z,62.90
2019-05-25T08:32:40.203Z,64.80
2019-05-25T08:35:09.029Z,63.60
2019-05-25T08:37:37.481Z,62.50
2019-05-25T08:40:11.526Z,62.30
2019-05-25T08:42:40.031Z,61.90
2019-05-25T08:45:09.613Z,63.20
2019-05-25T08:47:38.133Z,63.80
2019-05-25T08:50:08.163Z,64.00
2019-05-25T08:52:37.061Z,64.70
2019-05-25T08:55:09.164Z,63.50
2019-05-25T08:57:37.828Z,63.40
2019-05-25T09:00:07.350Z,62.40
2019-05-25T09:02:36.177Z,60.50
2019-05-25T09:05:08.025Z,58.30
2019-05-25T09:07:36.545Z,57.80
2019-05-25T09:10:09.218Z,57.00
2019-05-25T09:12:37.881Z,58.20
2019-05-25T09:15:08.185Z,58.50
2019-05-25T09:17:36.694Z,58.70
2019-05-25T09:20:09.142Z,59.10
2019-05-25T09:22:37.905Z,60.00
2019-05-25T09:25:10.017Z,59.80
2019-05-25T09:27:38.740Z,59.60
2019-05-25T09:30:08.208Z,60.10
2019-05-25T09:32:36.744Z,59.90
2019-05-25T09:35:08.570Z,59.50
2019-05-25T09:37:37.215Z,59.70
2019-05-25T09:40:07.173Z,59.50
2019-05-25T09:42:35.894Z,59.60
2019-05-25T09:45:07.210Z,59.70
2019-05-25T09:47:35.664Z,59.80
2019-05-25T09:50:06.148Z,59.50
2019-05-25T09:52:34.762Z,59.70
2019-05-25T09:55:09.733Z,59.60
2019-05-25T09:57:41.651Z,59.60
2019-05-25T10:00:10.853Z,59.60
2019-05-25T10:02:39.799Z,59.80
2019-05-25T10:05:09.254Z,59.80
2019-05-25T10:07:37.956Z,59.80
2019-05-25T10:10:07.681Z,59.70
2019-05-25T10:12:36.317Z,59.90
2019-05-25T10:15:10.516Z,60.80
2019-05-25T10:17:39.847Z,59.90
2019-05-25T10:20:09.096Z,60.60
2019-05-25T10:22:37.634Z,61.90
2019-05-25T10:25:10.867Z,61.40
2019-05-25T10:27:39.519Z,61.20
2019-05-25T10:30:09.818Z,61.00
2019-05-25T10:32:42.387Z,60.70
2019-05-25T10:35:11.593Z,60.30
2019-05-25T10:37:40.253Z,59.70
2019-05-25T10:40:09.149Z,59.80
2019-05-25T10:42:37.609Z,59.80
2019-05-25T10:45:07.762Z,60.00
2019-05-25T10:47:36.336Z,59.90
2019-05-25T10:50:09.273Z,59.90
2019-05-25T10:52:37.803Z,59.90
2019-05-25T10:55:08.983Z,59.90
2019-05-25T10:57:41.167Z,59.90
2019-05-25T11:00:11.521Z,59.80
2019-05-25T11:02:40.047Z,59.80
2019-05-25T11:05:09.536Z,59.60
2019-05-25T11:07:37.991Z,60.60
2019-05-25T11:10:08.008Z,59.60
2019-05-25T11:12:36.515Z,59.60
2019-05-25T11:15:07.594Z,59.80
2019-05-25T11:17:36.198Z,59.70
2019-05-25T11:20:07.384Z,59.70
2019-05-25T11:22:35.897Z,59.70
2019-05-25T11:25:07.098Z,59.60
2019-05-25T11:27:35.540Z,59.70
2019-05-25T11:30:09.298Z,59.60
2019-05-25T11:32:35.780Z,59.50
2019-05-25T11:35:05.577Z,59.50
2019-05-25T11:37:37.934Z,59.60
2019-05-25T11:40:09.154Z,59.50
2019-05-25T11:42:37.748Z,59.50
2019-05-25T11:45:07.339Z,59.40
2019-05-25T11:47:35.997Z,59.10
2019-05-25T11:50:09.237Z,59.30
2019-05-25T11:52:37.897Z,59.30
2019-05-25T11:55:08.254Z,59.10
2019-05-25T11:57:37.606Z,59.00
2019-05-25T12:00:24.440Z,59.70
2019-05-25T12:02:42.074Z,59.10
2019-05-25T12:05:11.573Z,59.20
2019-05-25T12:07:44.591Z,59.30
2019-05-25T12:10:14.929Z,58.90
2019-05-25T12:12:45.279Z,59.00
2019-05-25T12:15:14.927Z,59.00
2019-05-25T12:17:45.798Z,59.10
2019-05-25T12:20:20.439Z,59.00
2019-05-25T12:22:51.911Z,58.60
2019-05-25T12:25:20.521Z,57.70
2019-05-25T12:27:49.776Z,58.60
2019-05-25T12:30:21.329Z,58.40
2019-05-25T12:32:49.903Z,57.50
2019-05-25T12:35:19.423Z,57.90
2019-05-25T12:37:47.958Z,58.50
2019-05-25T12:40:16.851Z,58.50
2019-05-25T12:42:46.201Z,57.80
2019-05-25T12:45:15.964Z,58.50
2019-05-25T12:47:45.761Z,57.80
2019-05-25T12:50:18.946Z,57.50
2019-05-25T12:52:47.755Z,57.60
2019-05-25T12:55:17.492Z,57.30
2019-05-25T12:57:46.315Z,58.20
2019-05-25T13:00:16.604Z,58.10
2019-05-25T13:02:45.371Z,57.70
2019-05-25T13:05:14.304Z,57.70
2019-05-25T13:07:42.789Z,57.90
2019-05-25T13:10:12.093Z,56.20
2019-05-25T13:12:40.561Z,57.20
2019-05-25T13:15:09.573Z,57.60
2019-05-25T13:17:39.515Z,57.90
2019-05-25T13:20:09.990Z,56.60
2019-05-25T13:22:38.455Z,55.10
2019-05-25T13:25:08.876Z,56.90
2019-05-25T13:27:37.404Z,56.40
2019-05-25T13:30:07.302Z,55.60
2019-05-25T13:32:35.886Z,57.50
2019-05-25T13:35:07.359Z,55.30
2019-05-25T13:37:37.892Z,56.50
2019-05-25T13:42:58.977Z,56.60
2019-05-25T13:45:27.714Z,57.30
2019-05-25T13:47:56.265Z,56.20
2019-05-25T13:50:25.013Z,57.20
2019-05-25T13:52:55.869Z,57.00
2019-05-25T13:55:24.525Z,57.30
2019-05-25T13:57:52.961Z,57.50
2019-05-25T14:00:21.562Z,57.50
2019-05-25T14:02:50.012Z,57.60
2019-05-25T14:05:18.481Z,57.10
2019-05-25T14:07:46.953Z,57.20
2019-05-25T14:10:15.491Z,57.70
2019-05-25T14:12:43.930Z,58.30
2019-05-25T14:15:12.966Z,59.00
2019-05-25T14:17:41.477Z,59.40
2019-05-25T14:20:11.308Z,59.20
2019-05-25T14:22:39.884Z,59.30
2019-05-25T14:25:08.569Z,60.10
2019-05-25T14:27:37.047Z,59.90
2019-05-25T14:30:06.945Z,59.40
2019-05-25T14:32:35.526Z,59.80
2019-05-25T14:35:05.144Z,60.10
2019-05-25T14:37:33.629Z,60.10
2019-05-25T14:40:02.176Z,60.00
2019-05-25T14:42:30.747Z,60.20
2019-05-25T14:44:59.206Z,60.60
2019-05-25T14:47:27.742Z,60.70
2019-05-25T14:49:56.205Z,60.70
2019-05-25T14:52:24.730Z,60.90
2019-05-25T14:54:54.726Z,60.80
2019-05-25T14:57:23.276Z,63.50
2019-05-25T14:59:51.775Z,63.10
2019-05-25T15:02:21.781Z,63.00
2019-05-25T15:04:50.258Z,63.20
2019-05-25T15:07:18.825Z,63.20
2019-05-25T15:09:47.351Z,63.20
2019-05-25T15:12:16.009Z,63.20
2019-05-25T15:14:44.534Z,63.30
2019-05-25T15:17:13.121Z,63.30
2019-05-25T15:19:42.103Z,63.10
2019-05-25T15:22:11.140Z,63.20
2019-05-25T15:24:39.824Z,63.00
2019-05-25T15:27:08.341Z,62.80
2019-05-25T15:29:36.929Z,62.80
2019-05-25T15:32:19.029Z,62.90
2019-05-25T15:34:35.804Z,62.80
2019-05-25T15:37:05.642Z,62.90
2019-05-25T15:39:34.425Z,62.80
2019-05-25T15:42:02.933Z,63.00
2019-05-25T15:44:33.283Z,62.90
2019-05-25T15:47:04.871Z,62.90
2019-05-25T15:49:33.588Z,63.20
2019-05-25T15:52:02.491Z,62.80
2019-05-25T16:18:32.292Z,77.80
2019-05-25T16:21:01.053Z,77.80
2019-05-25T16:23:29.630Z,77.90
2019-05-25T16:25:58.197Z,77.70
2019-05-25T16:28:26.686Z,77.50
2019-05-25T16:30:55.220Z,77.60
2019-05-25T16:33:24.997Z,77.70
2019-05-25T16:35:57.772Z,77.60
2019-05-25T16:38:24.102Z,77.50
2019-05-25T16:40:52.903Z,77.40
2019-05-25T16:43:21.833Z,78.00
2019-05-25T16:45:51.999Z,76.90
2019-05-25T16:48:20.612Z,77.00
2019-05-25T16:50:49.190Z,76.70
2019-05-25T16:53:17.937Z,76.60
2019-05-25T16:55:46.656Z,76.20
2019-05-25T16:58:17.841Z,76.20
2019-05-25T17:00:57.088Z,75.90
2019-05-25T17:03:29.182Z,75.70
2019-05-25T17:05:58.696Z,75.60
2019-05-25T17:08:27.383Z,75.40
2019-05-25T17:10:56.171Z,75.60
2019-05-25T17:13:24.845Z,74.90
2019-05-25T17:15:54.703Z,74.80
2019-05-25T17:18:28.099Z,74.50
2019-05-25T17:20:56.769Z,74.40
2019-05-25T17:23:25.382Z,73.90
2019-05-25T17:25:54.045Z,74.30
2019-05-25T17:28:23.031Z,72.50
2019-05-25T17:30:51.723Z,73.20
2019-05-25T17:33:20.736Z,73.00
2019-05-25T17:35:49.586Z,72.80
2019-05-25T17:38:20.300Z,72.60
2019-05-25T17:40:49.023Z,72.30
2019-05-25T17:43:19.591Z,72.50
2019-05-25T17:45:48.054Z,72.30
2019-05-25T17:48:16.767Z,72.20
2019-05-25T17:50:45.617Z,72.20
2019-05-25T17:53:15.348Z,72.10
2019-05-25T17:55:43.838Z,71.90
2019-05-25T17:58:12.268Z,71.90
2019-05-25T18:00:43.446Z,71.50
2019-05-25T18:03:11.957Z,71.60
2019-05-25T18:05:40.398Z,71.70
2019-05-25T18:08:09.789Z,71.40
2019-05-25T18:10:52.102Z,70.70
2019-05-25T18:13:08.621Z,71.60
2019-05-25T18:15:38.862Z,71.50
2019-05-25T18:18:08.264Z,71.30
2019-05-25T18:20:37.312Z,70.90
2019-05-25T18:23:06.077Z,71.10
2019-05-25T18:25:34.677Z,72.10
2019-05-25T18:28:03.250Z,71.20
2019-05-25T18:30:32.383Z,71.30
2019-05-25T20:34:35.553Z,69.40
2019-05-25T20:40:38.018Z,69.30
2019-05-25T20:43:06.541Z,69.40
2019-05-25T20:45:35.095Z,69.30
2019-05-25T20:48:04.619Z,69.20
2019-05-25T20:50:33.245Z,69.10
2019-05-25T20:53:01.685Z,69.20
2019-05-25T20:55:30.587Z,69.10
2019-05-25T20:57:59.088Z,68.90
2019-05-25T21:00:27.553Z,68.90
2019-05-25T21:03:06.020Z,68.80
2019-05-25T21:05:26.446Z,68.70
2019-05-25T21:07:54.982Z,68.70
2019-05-25T22:03:15.298Z,68.40
2019-05-25T22:05:43.837Z,68.30
2019-05-25T22:08:12.410Z,68.40
2019-05-25T22:10:40.944Z,68.30
2019-05-25T22:13:24.952Z,68.30
2019-05-25T22:15:39.768Z,68.20
2019-05-25T22:18:08.237Z,68.30
2019-05-25T22:20:36.669Z,68.30
2019-05-25T22:23:05.146Z,68.20
2019-05-25T22:25:33.693Z,68.30
2019-05-25T22:28:02.271Z,68.30
2019-05-25T22:30:30.790Z,68.40
2019-05-25T22:32:59.289Z,68.30
2019-05-25T22:35:27.834Z,68.30
2019-05-25T22:37:56.453Z,68.30
2019-05-25T22:40:25.025Z,68.30
2019-05-25T22:42:53.604Z,68.20
2019-05-25T22:45:22.302Z,68.30
2019-05-25T22:47:51.234Z,68.20
2019-05-25T22:50:20.661Z,68.10
2019-05-25T22:52:49.174Z,68.20
2019-05-25T22:55:17.768Z,68.20
2019-05-25T22:57:50.831Z,68.30
2019-05-25T23:00:17.176Z,68.20
2019-05-25T23:02:45.722Z,68.20
2019-05-25T23:05:14.426Z,68.20
2019-05-25T23:07:42.860Z,68.30
2019-05-25T23:10:11.922Z,68.10
2019-05-25T23:12:40.379Z,68.10
2019-05-25T23:15:09.707Z,68.20
2019-05-25T23:17:38.587Z,68.20
2019-05-25T23:20:08.986Z,68.10
2019-05-25T23:22:37.620Z,68.20
2019-05-25T23:25:06.465Z,68.10
2019-05-25T23:27:34.991Z,68.10
2019-05-25T23:30:04.913Z,68.10
2019-05-25T23:32:33.482Z,68.10
2019-05-25T23:35:01.936Z,68.20
2019-05-25T23:37:30.526Z,68.20
2019-05-25T23:39:59.110Z,68.20
2019-05-25T23:42:27.617Z,68.20
2019-05-25T23:44:56.117Z,68.10
2019-05-25T23:47:24.584Z,68.20
2019-05-25T23:49:53.043Z,68.10
2019-05-25T23:52:21.601Z,68.10
2019-05-25T23:54:50.285Z,68.10
2019-05-25T23:57:18.914Z,68.10
2019-05-25T23:59:47.444Z,68.10
